sensor_id;sensor_type;location;lat;lon;timestamp;P1;durP1;ratioP1;P2;durP2;ratioP2
55372;SDS011;70018;47.838;16.490;2023-05-13T00:01:09;5.65;;;4.82;;
55372;SDS011;70018;47.838;16.490;2023-05-13T00:03:35;5.22;;;3.90;;
55372;SDS011;70018;47.838;16.490;2023-05-13T00:06:03;5.95;;;5.30;;
55372;SDS011;70018;47.838;16.490;2023-05-13T00:08:29;8.93;;;4.80;;
55372;SDS011;70018;47.838;16.490;2023-05-13T00:10:56;6.38;;;4.88;;
55372;SDS011;70018;47.838;16.490;2023-05-13T00:13:23;6.15;;;4.28;;
55372;SDS011;70018;47.838;16.490;2023-05-13T00:15:49;4.25;;;3.85;;
55372;SDS011;70018;47.838;16.490;2023-05-13T00:18:16;6.22;;;5.50;;
55372;SDS011;70018;47.838;16.490;2023-05-13T00:20:43;7.68;;;5.13;;
55372;SDS011;70018;47.838;16.490;2023-05-13T00:23:09;9.20;;;5.55;;
55372;SDS011;70018;47.838;16.490;2023-05-13T00:25:36;7.35;;;5.80;;
55372;SDS011;70018;47.838;16.490;2023-05-13T00:28:03;7.28;;;5.32;;
55372;SDS011;70018;47.838;16.490;2023-05-13T00:30:30;6.18;;;4.78;;
55372;SDS011;70018;47.838;16.490;2023-05-13T00:32:57;9.68;;;5.25;;
55372;SDS011;70018;47.838;16.490;2023-05-13T00:35:24;7.40;;;5.28;;
55372;SDS011;70018;47.838;16.490;2023-05-13T00:37:50;6.47;;;5.60;;
55372;SDS011;70018;47.838;16.490;2023-05-13T00:40:21;8.30;;;5.45;;
55372;SDS011;70018;47.838;16.490;2023-05-13T00:42:50;8.30;;;6.30;;
55372;SDS011;70018;47.838;16.490;2023-05-13T00:45:17;5.78;;;4.93;;
55372;SDS011;70018;47.838;16.490;2023-05-13T00:47:43;8.52;;;6.00;;
55372;SDS011;70018;47.838;16.490;2023-05-13T00:50:11;6.85;;;4.97;;
55372;SDS011;70018;47.838;16.490;2023-05-13T00:52:39;9.25;;;6.40;;
55372;SDS011;70018;47.838;16.490;2023-05-13T00:55:07;5.78;;;4.95;;
55372;SDS011;70018;47.838;16.490;2023-05-13T00:57:35;8.25;;;5.82;;
55372;SDS011;70018;47.838;16.490;2023-05-13T01:00:03;7.22;;;5.78;;
55372;SDS011;70018;47.838;16.490;2023-05-13T01:05:37;8.40;;;6.47;;
55372;SDS011;70018;47.838;16.490;2023-05-13T01:08:15;6.80;;;5.45;;
55372;SDS011;70018;47.838;16.490;2023-05-13T01:10:50;8.27;;;5.68;;
55372;SDS011;70018;47.838;16.490;2023-05-13T01:13:37;9.77;;;6.25;;
55372;SDS011;70018;47.838;16.490;2023-05-13T01:16:11;9.73;;;6.68;;
55372;SDS011;70018;47.838;16.490;2023-05-13T01:18:45;7.85;;;6.28;;
55372;SDS011;70018;47.838;16.490;2023-05-13T01:21:26;8.88;;;5.90;;
55372;SDS011;70018;47.838;16.490;2023-05-13T01:23:54;6.78;;;5.53;;
55372;SDS011;70018;47.838;16.490;2023-05-13T01:26:21;12.63;;;6.32;;
55372;SDS011;70018;47.838;16.490;2023-05-13T01:28:49;13.18;;;6.85;;
55372;SDS011;70018;47.838;16.490;2023-05-13T01:31:16;6.28;;;5.13;;
55372;SDS011;70018;47.838;16.490;2023-05-13T01:33:44;7.55;;;5.35;;
55372;SDS011;70018;47.838;16.490;2023-05-13T01:36:11;8.20;;;6.22;;
55372;SDS011;70018;47.838;16.490;2023-05-13T01:38:39;7.72;;;5.55;;
55372;SDS011;70018;47.838;16.490;2023-05-13T01:41:06;7.90;;;5.85;;
55372;SDS011;70018;47.838;16.490;2023-05-13T01:43:32;9.68;;;5.35;;
55372;SDS011;70018;47.838;16.490;2023-05-13T01:45:59;7.10;;;4.93;;
55372;SDS011;70018;47.838;16.490;2023-05-13T01:48:26;5.50;;;4.15;;
55372;SDS011;70018;47.838;16.490;2023-05-13T01:50:53;9.98;;;5.82;;
55372;SDS011;70018;47.838;16.490;2023-05-13T01:53:21;6.72;;;5.22;;
55372;SDS011;70018;47.838;16.490;2023-05-13T01:55:47;6.32;;;4.35;;
55372;SDS011;70018;47.838;16.490;2023-05-13T01:58:14;7.57;;;5.53;;
55372;SDS011;70018;47.838;16.490;2023-05-13T02:00:40;6.65;;;5.03;;
55372;SDS011;70018;47.838;16.490;2023-05-13T02:03:07;6.93;;;5.07;;
55372;SDS011;70018;47.838;16.490;2023-05-13T02:05:34;8.90;;;4.93;;
55372;SDS011;70018;47.838;16.490;2023-05-13T02:08:00;6.93;;;4.57;;
55372;SDS011;70018;47.838;16.490;2023-05-13T02:10:27;8.95;;;5.13;;
55372;SDS011;70018;47.838;16.490;2023-05-13T02:12:54;6.35;;;5.10;;
55372;SDS011;70018;47.838;16.490;2023-05-13T02:15:20;9.15;;;5.75;;
55372;SDS011;70018;47.838;16.490;2023-05-13T02:17:47;8.10;;;5.38;;
55372;SDS011;70018;47.838;16.490;2023-05-13T02:20:14;6.72;;;5.20;;
55372;SDS011;70018;47.838;16.490;2023-05-13T02:22:40;5.30;;;4.40;;
55372;SDS011;70018;47.838;16.490;2023-05-13T02:25:07;6.40;;;5.22;;
55372;SDS011;70018;47.838;16.490;2023-05-13T02:27:34;6.57;;;4.93;;
55372;SDS011;70018;47.838;16.490;2023-05-13T02:30:00;7.65;;;5.43;;
55372;SDS011;70018;47.838;16.490;2023-05-13T02:32:27;8.50;;;5.22;;
55372;SDS011;70018;47.838;16.490;2023-05-13T02:34:53;6.80;;;5.30;;
55372;SDS011;70018;47.838;16.490;2023-05-13T02:37:20;5.22;;;4.40;;
55372;SDS011;70018;47.838;16.490;2023-05-13T02:39:47;8.35;;;5.30;;
55372;SDS011;70018;47.838;16.490;2023-05-13T02:42:13;6.07;;;4.30;;
55372;SDS011;70018;47.838;16.490;2023-05-13T02:44:40;8.35;;;4.68;;
55372;SDS011;70018;47.838;16.490;2023-05-13T02:47:06;10.05;;;4.88;;
55372;SDS011;70018;47.838;16.490;2023-05-13T02:49:33;6.65;;;4.82;;
55372;SDS011;70018;47.838;16.490;2023-05-13T02:51:59;5.45;;;4.25;;
55372;SDS011;70018;47.838;16.490;2023-05-13T02:54:26;6.40;;;4.80;;
55372;SDS011;70018;47.838;16.490;2023-05-13T02:56:53;4.68;;;3.90;;
55372;SDS011;70018;47.838;16.490;2023-05-13T02:59:19;5.75;;;4.00;;
55372;SDS011;70018;47.838;16.490;2023-05-13T03:01:46;6.20;;;4.07;;
55372;SDS011;70018;47.838;16.490;2023-05-13T03:04:13;5.28;;;4.53;;
55372;SDS011;70018;47.838;16.490;2023-05-13T03:06:39;6.95;;;5.15;;
55372;SDS011;70018;47.838;16.490;2023-05-13T03:09:06;6.03;;;4.55;;
55372;SDS011;70018;47.838;16.490;2023-05-13T03:11:32;5.82;;;4.53;;
55372;SDS011;70018;47.838;16.490;2023-05-13T03:13:59;7.72;;;4.75;;
55372;SDS011;70018;47.838;16.490;2023-05-13T03:16:26;6.35;;;4.45;;
55372;SDS011;70018;47.838;16.490;2023-05-13T03:18:52;7.65;;;4.70;;
55372;SDS011;70018;47.838;16.490;2023-05-13T03:21:19;7.05;;;5.60;;
55372;SDS011;70018;47.838;16.490;2023-05-13T03:23:46;7.60;;;4.07;;
55372;SDS011;70018;47.838;16.490;2023-05-13T03:26:12;5.40;;;3.92;;
55372;SDS011;70018;47.838;16.490;2023-05-13T03:28:39;5.00;;;3.95;;
55372;SDS011;70018;47.838;16.490;2023-05-13T03:31:05;5.30;;;4.40;;
55372;SDS011;70018;47.838;16.490;2023-05-13T03:33:32;5.43;;;4.80;;
55372;SDS011;70018;47.838;16.490;2023-05-13T03:35:59;5.18;;;3.78;;
55372;SDS011;70018;47.838;16.490;2023-05-13T03:38:25;5.15;;;4.13;;
55372;SDS011;70018;47.838;16.490;2023-05-13T03:40:52;5.45;;;4.45;;
55372;SDS011;70018;47.838;16.490;2023-05-13T03:43:18;5.70;;;4.85;;
55372;SDS011;70018;47.838;16.490;2023-05-13T03:45:45;6.38;;;5.10;;
55372;SDS011;70018;47.838;16.490;2023-05-13T03:48:13;6.55;;;4.93;;
55372;SDS011;70018;47.838;16.490;2023-05-13T03:50:40;6.65;;;4.63;;
55372;SDS011;70018;47.838;16.490;2023-05-13T03:53:08;6.38;;;4.95;;
55372;SDS011;70018;47.838;16.490;2023-05-13T03:55:36;6.65;;;5.18;;
55372;SDS011;70018;47.838;16.490;2023-05-13T03:58:12;6.65;;;4.50;;
55372;SDS011;70018;47.838;16.490;2023-05-13T04:00:40;8.77;;;4.75;;
55372;SDS011;70018;47.838;16.490;2023-05-13T04:03:08;6.10;;;5.18;;
55372;SDS011;70018;47.838;16.490;2023-05-13T04:05:35;6.70;;;5.25;;
55372;SDS011;70018;47.838;16.490;2023-05-13T04:08:02;8.75;;;6.05;;
55372;SDS011;70018;47.838;16.490;2023-05-13T04:10:28;6.85;;;5.03;;
55372;SDS011;70018;47.838;16.490;2023-05-13T04:12:55;5.10;;;4.20;;
55372;SDS011;70018;47.838;16.490;2023-05-13T04:15:22;6.55;;;4.93;;
55372;SDS011;70018;47.838;16.490;2023-05-13T04:17:48;6.70;;;5.20;;
55372;SDS011;70018;47.838;16.490;2023-05-13T04:20:16;6.03;;;4.55;;
55372;SDS011;70018;47.838;16.490;2023-05-13T04:22:43;6.57;;;5.10;;
55372;SDS011;70018;47.838;16.490;2023-05-13T04:25:09;8.95;;;5.05;;
55372;SDS011;70018;47.838;16.490;2023-05-13T04:27:36;5.82;;;5.00;;
55372;SDS011;70018;47.838;16.490;2023-05-13T04:30:03;6.38;;;4.90;;
55372;SDS011;70018;47.838;16.490;2023-05-13T04:32:30;8.13;;;5.40;;
55372;SDS011;70018;47.838;16.490;2023-05-13T04:34:57;6.32;;;4.97;;
55372;SDS011;70018;47.838;16.490;2023-05-13T04:37:23;6.53;;;4.90;;
55372;SDS011;70018;47.838;16.490;2023-05-13T04:39:50;6.07;;;4.80;;
55372;SDS011;70018;47.838;16.490;2023-05-13T04:42:16;7.13;;;4.88;;
55372;SDS011;70018;47.838;16.490;2023-05-13T04:44:43;8.70;;;5.90;;
55372;SDS011;70018;47.838;16.490;2023-05-13T04:47:09;8.55;;;6.20;;
55372;SDS011;70018;47.838;16.490;2023-05-13T04:49:36;7.28;;;5.45;;
55372;SDS011;70018;47.838;16.490;2023-05-13T04:52:05;11.75;;;7.35;;
55372;SDS011;70018;47.838;16.490;2023-05-13T04:54:32;8.77;;;5.18;;
55372;SDS011;70018;47.838;16.490;2023-05-13T04:57:01;6.72;;;5.53;;
55372;SDS011;70018;47.838;16.490;2023-05-13T04:59:28;7.75;;;5.53;;
55372;SDS011;70018;47.838;16.490;2023-05-13T05:01:54;8.90;;;5.65;;
55372;SDS011;70018;47.838;16.490;2023-05-13T05:04:21;6.47;;;4.68;;
55372;SDS011;70018;47.838;16.490;2023-05-13T05:06:48;6.63;;;4.60;;
55372;SDS011;70018;47.838;16.490;2023-05-13T05:09:14;8.52;;;5.78;;
55372;SDS011;70018;47.838;16.490;2023-05-13T05:11:41;6.57;;;4.35;;
55372;SDS011;70018;47.838;16.490;2023-05-13T05:14:07;5.57;;;4.78;;
55372;SDS011;70018;47.838;16.490;2023-05-13T05:16:34;9.23;;;5.18;;
55372;SDS011;70018;47.838;16.490;2023-05-13T05:19:00;6.00;;;4.00;;
55372;SDS011;70018;47.838;16.490;2023-05-13T05:21:27;6.32;;;4.75;;
55372;SDS011;70018;47.838;16.490;2023-05-13T05:23:54;9.63;;;5.80;;
55372;SDS011;70018;47.838;16.490;2023-05-13T05:26:20;6.97;;;5.32;;
55372;SDS011;70018;47.838;16.490;2023-05-13T05:28:47;8.23;;;6.20;;
55372;SDS011;70018;47.838;16.490;2023-05-13T05:31:14;8.02;;;5.20;;
55372;SDS011;70018;47.838;16.490;2023-05-13T05:33:40;8.00;;;4.93;;
55372;SDS011;70018;47.838;16.490;2023-05-13T05:36:07;6.57;;;5.40;;
55372;SDS011;70018;47.838;16.490;2023-05-13T05:38:34;8.07;;;5.82;;
55372;SDS011;70018;47.838;16.490;2023-05-13T05:41:01;5.40;;;4.43;;
55372;SDS011;70018;47.838;16.490;2023-05-13T05:43:27;5.80;;;4.90;;
55372;SDS011;70018;47.838;16.490;2023-05-13T05:45:54;5.68;;;4.82;;
55372;SDS011;70018;47.838;16.490;2023-05-13T05:48:21;7.03;;;4.70;;
55372;SDS011;70018;47.838;16.490;2023-05-13T05:50:47;6.57;;;4.80;;
55372;SDS011;70018;47.838;16.490;2023-05-13T05:53:14;6.65;;;4.70;;
55372;SDS011;70018;47.838;16.490;2023-05-13T05:55:41;8.82;;;5.65;;
55372;SDS011;70018;47.838;16.490;2023-05-13T05:58:08;5.78;;;4.60;;
55372;SDS011;70018;47.838;16.490;2023-05-13T06:00:39;7.00;;;4.38;;
55372;SDS011;70018;47.838;16.490;2023-05-13T06:03:06;7.43;;;5.95;;
55372;SDS011;70018;47.838;16.490;2023-05-13T06:05:33;8.77;;;5.55;;
55372;SDS011;70018;47.838;16.490;2023-05-13T06:08:00;8.07;;;4.72;;
55372;SDS011;70018;47.838;16.490;2023-05-13T06:10:27;8.00;;;4.93;;
55372;SDS011;70018;47.838;16.490;2023-05-13T06:12:53;5.32;;;4.20;;
55372;SDS011;70018;47.838;16.490;2023-05-13T06:15:20;7.22;;;5.45;;
55372;SDS011;70018;47.838;16.490;2023-05-13T06:17:46;8.20;;;5.82;;
55372;SDS011;70018;47.838;16.490;2023-05-13T06:20:13;9.00;;;5.95;;
55372;SDS011;70018;47.838;16.490;2023-05-13T06:22:40;7.45;;;5.72;;
55372;SDS011;70018;47.838;16.490;2023-05-13T06:25:07;6.35;;;4.95;;
55372;SDS011;70018;47.838;16.490;2023-05-13T06:27:34;5.80;;;4.82;;
55372;SDS011;70018;47.838;16.490;2023-05-13T06:30:01;9.85;;;6.80;;
55372;SDS011;70018;47.838;16.490;2023-05-13T06:32:28;7.90;;;6.13;;
55372;SDS011;70018;47.838;16.490;2023-05-13T06:34:54;6.90;;;5.13;;
55372;SDS011;70018;47.838;16.490;2023-05-13T06:37:21;5.43;;;4.75;;
55372;SDS011;70018;47.838;16.490;2023-05-13T06:39:48;8.63;;;6.75;;
55372;SDS011;70018;47.838;16.490;2023-05-13T06:42:14;7.43;;;5.68;;
55372;SDS011;70018;47.838;16.490;2023-05-13T06:44:41;7.35;;;5.88;;
55372;SDS011;70018;47.838;16.490;2023-05-13T06:47:07;6.68;;;5.72;;
55372;SDS011;70018;47.838;16.490;2023-05-13T06:49:37;7.20;;;5.85;;
55372;SDS011;70018;47.838;16.490;2023-05-13T06:52:03;7.38;;;4.95;;
55372;SDS011;70018;47.838;16.490;2023-05-13T06:54:30;6.47;;;5.03;;
55372;SDS011;70018;47.838;16.490;2023-05-13T06:56:57;6.63;;;5.28;;
55372;SDS011;70018;47.838;16.490;2023-05-13T06:59:23;6.35;;;4.93;;
55372;SDS011;70018;47.838;16.490;2023-05-13T07:01:50;6.88;;;4.95;;
55372;SDS011;70018;47.838;16.490;2023-05-13T07:04:17;7.00;;;4.60;;
55372;SDS011;70018;47.838;16.490;2023-05-13T07:06:43;6.15;;;5.32;;
55372;SDS011;70018;47.838;16.490;2023-05-13T07:09:10;6.05;;;4.43;;
55372;SDS011;70018;47.838;16.490;2023-05-13T07:11:36;6.07;;;5.47;;
55372;SDS011;70018;47.838;16.490;2023-05-13T07:14:03;5.35;;;4.50;;
55372;SDS011;70018;47.838;16.490;2023-05-13T07:16:29;8.10;;;5.60;;
55372;SDS011;70018;47.838;16.490;2023-05-13T07:18:56;5.90;;;4.90;;
55372;SDS011;70018;47.838;16.490;2023-05-13T07:21:23;9.10;;;5.55;;
55372;SDS011;70018;47.838;16.490;2023-05-13T07:23:49;8.02;;;5.75;;
55372;SDS011;70018;47.838;16.490;2023-05-13T07:26:16;8.45;;;5.45;;
55372;SDS011;70018;47.838;16.490;2023-05-13T07:28:42;6.07;;;5.13;;
55372;SDS011;70018;47.838;16.490;2023-05-13T07:31:09;9.38;;;5.85;;
55372;SDS011;70018;47.838;16.490;2023-05-13T07:33:36;8.73;;;5.85;;
55372;SDS011;70018;47.838;16.490;2023-05-13T07:36:02;8.45;;;5.93;;
55372;SDS011;70018;47.838;16.490;2023-05-13T07:38:29;9.43;;;4.80;;
55372;SDS011;70018;47.838;16.490;2023-05-13T07:40:56;8.23;;;5.43;;
55372;SDS011;70018;47.838;16.490;2023-05-13T07:43:23;7.70;;;5.75;;
55372;SDS011;70018;47.838;16.490;2023-05-13T07:45:49;7.28;;;5.05;;
55372;SDS011;70018;47.838;16.490;2023-05-13T07:48:17;7.38;;;5.30;;
55372;SDS011;70018;47.838;16.490;2023-05-13T07:50:44;7.07;;;5.57;;
55372;SDS011;70018;47.838;16.490;2023-05-13T07:53:12;8.50;;;5.68;;
55372;SDS011;70018;47.838;16.490;2023-05-13T07:55:39;8.32;;;6.57;;
55372;SDS011;70018;47.838;16.490;2023-05-13T07:58:06;6.60;;;4.70;;
55372;SDS011;70018;47.838;16.490;2023-05-13T08:00:32;6.97;;;5.55;;
55372;SDS011;70018;47.838;16.490;2023-05-13T08:02:59;6.72;;;4.80;;
55372;SDS011;70018;47.838;16.490;2023-05-13T08:05:25;6.65;;;4.72;;
55372;SDS011;70018;47.838;16.490;2023-05-13T08:07:52;8.25;;;5.60;;
55372;SDS011;70018;47.838;16.490;2023-05-13T08:10:19;6.25;;;4.88;;
55372;SDS011;70018;47.838;16.490;2023-05-13T08:12:45;6.85;;;5.55;;
55372;SDS011;70018;47.838;16.490;2023-05-13T08:15:16;8.60;;;5.80;;
55372;SDS011;70018;47.838;16.490;2023-05-13T08:17:44;9.60;;;6.10;;
55372;SDS011;70018;47.838;16.490;2023-05-13T08:20:10;7.93;;;5.32;;
55372;SDS011;70018;47.838;16.490;2023-05-13T08:22:37;8.90;;;5.90;;
55372;SDS011;70018;47.838;16.490;2023-05-13T08:25:04;8.15;;;5.53;;
55372;SDS011;70018;47.838;16.490;2023-05-13T08:27:31;10.60;;;5.95;;
55372;SDS011;70018;47.838;16.490;2023-05-13T08:29:57;11.48;;;5.70;;
55372;SDS011;70018;47.838;16.490;2023-05-13T08:32:24;10.05;;;5.93;;
55372;SDS011;70018;47.838;16.490;2023-05-13T08:34:51;8.15;;;5.40;;
55372;SDS011;70018;47.838;16.490;2023-05-13T08:37:17;7.20;;;5.18;;
55372;SDS011;70018;47.838;16.490;2023-05-13T08:39:44;5.95;;;5.18;;
55372;SDS011;70018;47.838;16.490;2023-05-13T08:42:11;7.07;;;5.63;;
55372;SDS011;70018;47.838;16.490;2023-05-13T08:44:44;8.57;;;5.72;;
55372;SDS011;70018;47.838;16.490;2023-05-13T08:49:38;6.80;;;5.30;;
55372;SDS011;70018;47.838;16.490;2023-05-13T08:52:05;9.90;;;7.10;;
55372;SDS011;70018;47.838;16.490;2023-05-13T08:54:32;11.27;;;5.88;;
55372;SDS011;70018;47.838;16.490;2023-05-13T08:56:59;6.80;;;4.93;;
55372;SDS011;70018;47.838;16.490;2023-05-13T08:59:26;6.68;;;4.57;;
55372;SDS011;70018;47.838;16.490;2023-05-13T09:01:53;7.00;;;4.45;;
55372;SDS011;70018;47.838;16.490;2023-05-13T09:04:21;7.60;;;4.93;;
55372;SDS011;70018;47.838;16.490;2023-05-13T09:06:49;8.00;;;5.30;;
55372;SDS011;70018;47.838;16.490;2023-05-13T09:09:15;4.93;;;4.00;;
55372;SDS011;70018;47.838;16.490;2023-05-13T09:11:42;6.90;;;5.05;;
55372;SDS011;70018;47.838;16.490;2023-05-13T09:14:12;7.18;;;5.55;;
55372;SDS011;70018;47.838;16.490;2023-05-13T09:16:39;7.85;;;5.70;;
55372;SDS011;70018;47.838;16.490;2023-05-13T09:19:07;6.25;;;4.50;;
55372;SDS011;70018;47.838;16.490;2023-05-13T09:21:36;6.43;;;5.53;;
55372;SDS011;70018;47.838;16.490;2023-05-13T09:24:06;6.40;;;4.90;;
55372;SDS011;70018;47.838;16.490;2023-05-13T09:26:44;5.82;;;4.70;;
55372;SDS011;70018;47.838;16.490;2023-05-13T09:29:15;9.43;;;4.93;;
55372;SDS011;70018;47.838;16.490;2023-05-13T09:31:45;6.65;;;4.93;;
55372;SDS011;70018;47.838;16.490;2023-05-13T09:34:32;12.73;;;5.53;;
55372;SDS011;70018;47.838;16.490;2023-05-13T09:37:00;7.80;;;5.07;;
55372;SDS011;70018;47.838;16.490;2023-05-13T09:39:32;8.73;;;5.68;;
55372;SDS011;70018;47.838;16.490;2023-05-13T09:42:03;7.53;;;5.40;;
55372;SDS011;70018;47.838;16.490;2023-05-13T09:44:31;6.95;;;5.05;;
55372;SDS011;70018;47.838;16.490;2023-05-13T09:46:59;6.65;;;4.90;;
55372;SDS011;70018;47.838;16.490;2023-05-13T09:49:27;6.57;;;4.97;;
55372;SDS011;70018;47.838;16.490;2023-05-13T09:51:56;7.03;;;4.38;;
55372;SDS011;70018;47.838;16.490;2023-05-13T09:54:23;10.05;;;5.70;;
55372;SDS011;70018;47.838;16.490;2023-05-13T09:56:50;7.18;;;4.57;;
55372;SDS011;70018;47.838;16.490;2023-05-13T09:59:23;7.22;;;5.45;;
55372;SDS011;70018;47.838;16.490;2023-05-13T10:01:51;9.70;;;5.55;;
55372;SDS011;70018;47.838;16.490;2023-05-13T10:04:20;7.97;;;4.03;;
55372;SDS011;70018;47.838;16.490;2023-05-13T10:06:47;7.07;;;5.38;;
55372;SDS011;70018;47.838;16.490;2023-05-13T10:09:15;7.95;;;5.30;;
55372;SDS011;70018;47.838;16.490;2023-05-13T10:11:42;9.82;;;4.28;;
55372;SDS011;70018;47.838;16.490;2023-05-13T10:14:12;10.18;;;5.30;;
55372;SDS011;70018;47.838;16.490;2023-05-13T10:16:40;7.80;;;4.85;;
55372;SDS011;70018;47.838;16.490;2023-05-13T10:19:07;10.98;;;5.88;;
55372;SDS011;70018;47.838;16.490;2023-05-13T10:21:35;7.32;;;4.10;;
55372;SDS011;70018;47.838;16.490;2023-05-13T10:24:02;6.78;;;4.35;;
55372;SDS011;70018;47.838;16.490;2023-05-13T10:26:30;5.70;;;4.60;;
55372;SDS011;70018;47.838;16.490;2023-05-13T10:28:57;7.47;;;4.18;;
55372;SDS011;70018;47.838;16.490;2023-05-13T10:31:24;12.60;;;5.13;;
55372;SDS011;70018;47.838;16.490;2023-05-13T10:33:53;5.55;;;3.95;;
55372;SDS011;70018;47.838;16.490;2023-05-13T10:39:32;6.47;;;4.60;;
55372;SDS011;70018;47.838;16.490;2023-05-13T10:45:04;4.03;;;2.95;;
55372;SDS011;70018;47.838;16.490;2023-05-13T10:47:32;5.90;;;3.40;;
55372;SDS011;70018;47.838;16.490;2023-05-13T10:50:01;4.32;;;3.33;;
55372;SDS011;70018;47.838;16.490;2023-05-13T10:52:40;5.05;;;3.58;;
55372;SDS011;70018;47.838;16.490;2023-05-13T10:55:13;5.57;;;3.40;;
55372;SDS011;70018;47.838;16.490;2023-05-13T10:57:44;7.70;;;4.22;;
55372;SDS011;70018;47.838;16.490;2023-05-13T11:00:36;6.85;;;3.90;;
55372;SDS011;70018;47.838;16.490;2023-05-13T11:03:26;4.03;;;3.45;;
55372;SDS011;70018;47.838;16.490;2023-05-13T11:05:58;5.28;;;3.22;;
55372;SDS011;70018;47.838;16.490;2023-05-13T11:08:39;6.15;;;4.07;;
55372;SDS011;70018;47.838;16.490;2023-05-13T11:13:53;4.20;;;3.13;;
55372;SDS011;70018;47.838;16.490;2023-05-13T11:16:27;7.15;;;4.00;;
55372;SDS011;70018;47.838;16.490;2023-05-13T11:18:54;4.95;;;3.17;;
55372;SDS011;70018;47.838;16.490;2023-05-13T11:21:31;6.32;;;3.33;;
55372;SDS011;70018;47.838;16.490;2023-05-13T11:24:03;4.35;;;3.65;;
55372;SDS011;70018;47.838;16.490;2023-05-13T11:26:45;5.90;;;3.80;;
55372;SDS011;70018;47.838;16.490;2023-05-13T11:29:14;4.10;;;3.22;;
55372;SDS011;70018;47.838;16.490;2023-05-13T11:31:52;5.38;;;3.05;;
55372;SDS011;70018;47.838;16.490;2023-05-13T11:34:18;4.15;;;3.47;;
55372;SDS011;70018;47.838;16.490;2023-05-13T11:36:47;5.18;;;3.90;;
55372;SDS011;70018;47.838;16.490;2023-05-13T11:39:16;5.20;;;3.33;;
55372;SDS011;70018;47.838;16.490;2023-05-13T11:41:45;5.03;;;3.50;;
55372;SDS011;70018;47.838;16.490;2023-05-13T11:44:17;3.78;;;3.25;;
55372;SDS011;70018;47.838;16.490;2023-05-13T11:46:55;5.05;;;3.47;;
55372;SDS011;70018;47.838;16.490;2023-05-13T11:49:37;4.25;;;3.00;;
55372;SDS011;70018;47.838;16.490;2023-05-13T11:52:06;4.70;;;3.38;;
55372;SDS011;70018;47.838;16.490;2023-05-13T11:54:40;5.53;;;3.78;;
55372;SDS011;70018;47.838;16.490;2023-05-13T11:57:27;4.93;;;3.45;;
55372;SDS011;70018;47.838;16.490;2023-05-13T11:59:58;3.78;;;2.90;;
55372;SDS011;70018;47.838;16.490;2023-05-13T12:02:30;5.80;;;3.72;;
55372;SDS011;70018;47.838;16.490;2023-05-13T12:04:59;4.75;;;3.50;;
55372;SDS011;70018;47.838;16.490;2023-05-13T12:07:27;3.22;;;2.63;;
55372;SDS011;70018;47.838;16.490;2023-05-13T12:09:55;4.72;;;3.67;;
55372;SDS011;70018;47.838;16.490;2023-05-13T12:12:23;4.45;;;3.58;;
55372;SDS011;70018;47.838;16.490;2023-05-13T12:14:51;4.60;;;3.55;;
55372;SDS011;70018;47.838;16.490;2023-05-13T12:17:19;6.30;;;3.25;;
55372;SDS011;70018;47.838;16.490;2023-05-13T12:22:33;4.30;;;3.20;;
55372;SDS011;70018;47.838;16.490;2023-05-13T12:25:01;5.35;;;3.75;;
55372;SDS011;70018;47.838;16.490;2023-05-13T12:27:58;7.30;;;4.05;;
55372;SDS011;70018;47.838;16.490;2023-05-13T12:30:37;5.07;;;3.93;;
55372;SDS011;70018;47.838;16.490;2023-05-13T12:33:15;5.13;;;3.15;;
55372;SDS011;70018;47.838;16.490;2023-05-13T12:35:43;4.43;;;2.88;;
55372;SDS011;70018;47.838;16.490;2023-05-13T12:38:17;6.63;;;4.53;;
55372;SDS011;70018;47.838;16.490;2023-05-13T12:40:48;4.80;;;4.18;;
55372;SDS011;70018;47.838;16.490;2023-05-13T12:43:16;4.88;;;3.83;;
55372;SDS011;70018;47.838;16.490;2023-05-13T12:45:45;5.13;;;3.50;;
55372;SDS011;70018;47.838;16.490;2023-05-13T12:48:12;5.22;;;3.13;;
55372;SDS011;70018;47.838;16.490;2023-05-13T12:50:39;6.68;;;3.20;;
55372;SDS011;70018;47.838;16.490;2023-05-13T12:53:06;6.53;;;3.47;;
55372;SDS011;70018;47.838;16.490;2023-05-13T12:55:33;10.65;;;3.67;;
55372;SDS011;70018;47.838;16.490;2023-05-13T12:58:05;3.55;;;2.47;;
55372;SDS011;70018;47.838;16.490;2023-05-13T13:00:33;7.78;;;3.40;;
55372;SDS011;70018;47.838;16.490;2023-05-13T13:02:59;5.57;;;3.00;;
55372;SDS011;70018;47.838;16.490;2023-05-13T13:05:26;3.13;;;2.40;;
55372;SDS011;70018;47.838;16.490;2023-05-13T13:07:53;4.93;;;3.13;;
55372;SDS011;70018;47.838;16.490;2023-05-13T13:10:19;5.15;;;3.10;;
55372;SDS011;70018;47.838;16.490;2023-05-13T13:12:46;4.10;;;3.20;;
55372;SDS011;70018;47.838;16.490;2023-05-13T13:15:13;3.67;;;2.88;;
55372;SDS011;70018;47.838;16.490;2023-05-13T13:17:39;5.15;;;2.63;;
55372;SDS011;70018;47.838;16.490;2023-05-13T13:20:06;3.00;;;2.35;;
55372;SDS011;70018;47.838;16.490;2023-05-13T13:22:33;4.47;;;3.25;;
55372;SDS011;70018;47.838;16.490;2023-05-13T13:25:03;4.45;;;2.80;;
55372;SDS011;70018;47.838;16.490;2023-05-13T13:27:31;3.08;;;2.75;;
55372;SDS011;70018;47.838;16.490;2023-05-13T13:29:59;5.28;;;2.50;;
55372;SDS011;70018;47.838;16.490;2023-05-13T13:32:25;4.88;;;2.95;;
55372;SDS011;70018;47.838;16.490;2023-05-13T13:34:52;3.50;;;2.85;;
55372;SDS011;70018;47.838;16.490;2023-05-13T13:37:19;5.28;;;3.05;;
55372;SDS011;70018;47.838;16.490;2023-05-13T13:39:45;3.70;;;3.00;;
55372;SDS011;70018;47.838;16.490;2023-05-13T13:42:12;3.22;;;2.83;;
55372;SDS011;70018;47.838;16.490;2023-05-13T13:44:39;3.65;;;3.10;;
55372;SDS011;70018;47.838;16.490;2023-05-13T13:47:05;4.35;;;3.22;;
55372;SDS011;70018;47.838;16.490;2023-05-13T13:49:32;3.63;;;2.72;;
55372;SDS011;70018;47.838;16.490;2023-05-13T13:51:58;4.72;;;3.17;;
55372;SDS011;70018;47.838;16.490;2023-05-13T13:54:25;3.65;;;2.85;;
55372;SDS011;70018;47.838;16.490;2023-05-13T13:56:51;3.90;;;2.80;;
55372;SDS011;70018;47.838;16.490;2023-05-13T13:59:18;4.80;;;3.20;;
55372;SDS011;70018;47.838;16.490;2023-05-13T14:01:45;4.32;;;2.85;;
55372;SDS011;70018;47.838;16.490;2023-05-13T14:04:13;4.63;;;3.08;;
55372;SDS011;70018;47.838;16.490;2023-05-13T14:06:49;4.05;;;2.95;;
55372;SDS011;70018;47.838;16.490;2023-05-13T14:09:16;4.05;;;3.03;;
55372;SDS011;70018;47.838;16.490;2023-05-13T14:11:43;4.53;;;2.55;;
55372;SDS011;70018;47.838;16.490;2023-05-13T14:14:10;4.80;;;3.17;;
55372;SDS011;70018;47.838;16.490;2023-05-13T14:16:37;5.00;;;3.25;;
55372;SDS011;70018;47.838;16.490;2023-05-13T14:19:03;3.85;;;2.90;;
55372;SDS011;70018;47.838;16.490;2023-05-13T14:21:30;3.40;;;2.88;;
55372;SDS011;70018;47.838;16.490;2023-05-13T14:23:57;4.07;;;3.00;;
55372;SDS011;70018;47.838;16.490;2023-05-13T14:26:24;4.68;;;3.40;;
55372;SDS011;70018;47.838;16.490;2023-05-13T14:28:51;4.40;;;3.40;;
55372;SDS011;70018;47.838;16.490;2023-05-13T14:31:17;4.03;;;3.55;;
55372;SDS011;70018;47.838;16.490;2023-05-13T14:33:44;5.28;;;2.97;;
55372;SDS011;70018;47.838;16.490;2023-05-13T14:36:11;6.50;;;3.45;;
55372;SDS011;70018;47.838;16.490;2023-05-13T14:38:41;4.63;;;3.45;;
55372;SDS011;70018;47.838;16.490;2023-05-13T14:41:09;5.90;;;3.40;;
55372;SDS011;70018;47.838;16.490;2023-05-13T14:43:36;4.72;;;3.70;;
55372;SDS011;70018;47.838;16.490;2023-05-13T14:46:02;5.47;;;2.97;;
55372;SDS011;70018;47.838;16.490;2023-05-13T14:48:29;5.38;;;3.60;;
55372;SDS011;70018;47.838;16.490;2023-05-13T14:50:56;6.13;;;3.65;;
55372;SDS011;70018;47.838;16.490;2023-05-13T14:53:22;4.50;;;3.20;;
55372;SDS011;70018;47.838;16.490;2023-05-13T14:55:49;4.70;;;3.50;;